Time;durP1;ratioP1;P1;durP2;ratioP2;P2;SDS_P1;SDS_P2;PMS_P1;PMS_P2;Temp;Humidity;BMP_temperature;BMP_pressure;BME280_temperature;BME280_humidity;BME280_pressure;Samples;Min_cycle;Max_cycle;Signal;HPM_P1;HPM_P2
2022/10/21 00:01:08;;;;;;;112.30;54.63;;;10.30;99.90;;;;;;4933262;29;20055;-69
2022/10/21 00:03:35;;;;;;;108.45;53.95;;;10.30;99.90;;;;;;4931641;29;20462;-68
2022/10/21 00:06:00;;;;;;;118.63;54.58;;;10.40;99.90;;;;;;4933094;29;20047;-68
2022/10/21 00:08:26;;;;;;;97.82;53.67;;;10.40;99.90;;;;;;4932924;29;20405;-68
2022/10/21 00:10:53;;;;;;;109.60;56.85;;;10.40;99.90;;;;;;4931042;29;20091;-69
2022/10/21 00:13:20;;;;;;;96.63;56.15;;;10.60;99.90;;;;;;4932819;29;20039;-69
2022/10/21 00:16:01;;;;;;;100.28;50.88;;;10.30;99.90;;;;;;4930895;29;20079;-68
2022/10/21 00:18:27;;;;;;;120.25;57.17;;;10.30;99.90;;;;;;4932150;29;20106;-68
2022/10/21 00:20:52;;;;;;;102.78;54.53;;;10.30;99.90;;;;;;4930494;29;20059;-69
2022/10/21 00:23:18;;;;;;;104.90;54.95;;;10.30;99.90;;;;;;4931194;29;20051;-68
2022/10/21 00:25:44;;;;;;;104.75;54.05;;;10.30;99.90;;;;;;4946612;29;20385;-69
2022/10/21 00:28:09;;;;;;;88.72;50.75;;;10.40;99.90;;;;;;4930965;29;20044;-68
2022/10/21 00:30:35;;;;;;;114.88;56.85;;;10.30;99.90;;;;;;4929944;29;20114;-68
2022/10/21 00:33:00;;;;;;;108.43;56.05;;;10.30;99.90;;;;;;4929588;29;20056;-69
2022/10/21 00:35:26;;;;;;;95.90;51.72;;;10.30;99.90;;;;;;4931139;29;20048;-68
2022/10/21 00:37:52;;;;;;;110.57;54.67;;;10.20;99.90;;;;;;4931404;29;20047;-68
2022/10/21 00:40:17;;;;;;;104.15;54.20;;;10.30;99.90;;;;;;4930015;29;20043;-68
2022/10/21 00:42:43;;;;;;;102.28;52.92;;;10.30;99.90;;;;;;4945242;29;20043;-68
2022/10/21 00:45:14;;;;;;;118.97;56.63;;;10.20;99.90;;;;;;4930740;29;20123;-68
2022/10/21 00:47:50;;;;;;;109.95;54.15;;;10.20;99.90;;;;;;4931121;29;20098;-68
2022/10/21 00:50:31;;;;;;;95.30;51.10;;;10.20;99.90;;;;;;4931219;29;20511;-69
2022/10/21 00:52:59;;;;;;;108.43;53.90;;;10.20;99.90;;;;;;4931072;29;20044;-69
2022/10/21 00:55:28;;;;;;;96.63;49.78;;;10.20;99.90;;;;;;4932932;29;20426;-68
2022/10/21 00:57:54;;;;;;;98.65;50.50;;;10.10;99.90;;;;;;4944599;28;20083;-69
2022/10/21 01:00:20;;;;;;;86.97;47.38;;;10.10;99.90;;;;;;4930030;29;20098;-68
2022/10/21 01:02:45;;;;;;;99.50;51.03;;;10.10;99.90;;;;;;4929939;29;20465;-68
2022/10/21 01:05:12;;;;;;;89.00;49.00;;;10.10;99.90;;;;;;4931015;29;20846;-68
2022/10/21 01:07:38;;;;;;;103.30;53.65;;;10.10;99.90;;;;;;4930524;29;20162;-68
2022/10/21 01:10:05;;;;;;;95.43;48.95;;;10.10;99.90;;;;;;4929455;29;20047;-68
2022/10/21 01:13:20;;;;;;;89.25;51.90;;;10.10;99.90;;;;;;4930401;29;20059;-68
2022/10/21 01:16:09;;;;;;;117.10;55.63;;;10.10;99.90;;;;;;4933483;29;20040;-68
2022/10/21 01:19:01;;;;;;;108.30;50.40;;;10.10;99.90;;;;;;4929846;29;20067;-68
2022/10/21 01:22:05;;;;;;;107.13;54.92;;;10.10;99.90;;;;;;4919010;29;20067;-68
2022/10/21 01:24:52;;;;;;;90.45;48.55;;;10.10;99.90;;;;;;4870251;29;20104;-68
2022/10/21 01:27:33;;;;;;;85.88;48.13;;;10.10;99.90;;;;;;4925812;29;20054;-68
2022/10/21 01:30:10;;;;;;;102.10;51.08;;;10.10;99.90;;;;;;4929726;29;20131;-68
2022/10/21 01:33:20;;;;;;;81.80;47.70;;;10.10;99.90;;;;;;4919427;29;20052;-68
2022/10/21 01:35:53;;;;;;;107.10;49.83;;;10.10;99.90;;;;;;4908002;29;20083;-68
2022/10/21 01:38:51;;;;;;;124.13;54.92;;;10.00;99.90;;;;;;4930615;29;20048;-68
2022/10/21 01:41:50;;;;;;;114.90;52.65;;;10.00;99.90;;;;;;4919268;29;20130;-68
2022/10/21 01:44:27;;;;;;;91.15;48.60;;;10.00;99.90;;;;;;4895479;29;20062;-68
2022/10/21 01:47:23;;;;;;;98.28;50.83;;;10.00;99.90;;;;;;4929341;29;20062;-68
2022/10/21 01:49:56;;;;;;;95.10;49.75;;;10.00;99.90;;;;;;4926700;29;20121;-68
2022/10/21 01:52:22;;;;;;;111.65;53.80;;;10.00;99.90;;;;;;4930200;29;20523;-68
2022/10/21 01:54:56;;;;;;;96.88;51.63;;;10.00;99.90;;;;;;4931693;29;20051;-68
2022/10/21 01:57:26;;;;;;;104.57;48.78;;;10.00;99.90;;;;;;4929806;29;20095;-68
2022/10/21 01:59:53;;;;;;;82.45;45.55;;;10.00;99.90;;;;;;4928767;29;20055;-68
2022/10/21 02:02:21;;;;;;;96.40;50.33;;;10.00;99.90;;;;;;4929740;29;20060;-68
2022/10/21 02:04:50;;;;;;;93.28;50.53;;;10.10;99.90;;;;;;4928824;29;20058;-68
2022/10/21 02:07:16;;;;;;;94.03;50.08;;;10.10;99.90;;;;;;4929850;28;20047;-68
2022/10/21 02:09:42;;;;;;;108.45;50.58;;;10.20;99.90;;;;;;4929517;29;20046;-69
2022/10/21 02:12:09;;;;;;;120.43;56.38;;;10.20;99.90;;;;;;4930501;29;20155;-68
2022/10/21 02:14:46;;;;;;;115.22;53.13;;;10.30;99.90;;;;;;4928706;29;20063;-68
2022/10/21 02:17:15;;;;;;;113.15;54.67;;;10.40;99.90;;;;;;4929560;29;20043;-69
2022/10/21 02:19:41;;;;;;;114.10;55.30;;;10.50;99.90;;;;;;4928368;29;20408;-68
2022/10/21 02:22:10;;;;;;;110.57;53.63;;;10.50;99.90;;;;;;4930662;29;20059;-68
2022/10/21 02:24:53;;;;;;;115.82;56.15;;;10.60;99.90;;;;;;4924727;29;20180;-68
2022/10/21 02:27:21;;;;;;;109.60;56.15;;;10.60;99.90;;;;;;4929900;29;20060;-68
2022/10/21 02:29:48;;;;;;;127.10;59.10;;;10.60;99.90;;;;;;4928164;29;20925;-68
2022/10/21 02:32:38;;;;;;;105.18;54.50;;;10.70;99.90;;;;;;4925687;29;20050;-68
2022/10/21 02:35:22;;;;;;;104.05;52.78;;;10.70;99.90;;;;;;4929082;29;20044;-68
2022/10/21 02:38:05;;;;;;;119.00;57.80;;;10.70;99.90;;;;;;4948010;28;20054;-68
2022/10/21 02:40:36;;;;;;;115.28;56.28;;;10.80;99.90;;;;;;4948181;29;20044;-69
2022/10/21 02:43:09;;;;;;;117.80;57.13;;;10.80;99.90;;;;;;4933891;29;20048;-69
2022/10/21 02:45:35;;;;;;;160.80;65.45;;;10.90;99.90;;;;;;4932264;29;20054;-68
2022/10/21 02:48:02;;;;;;;138.27;60.15;;;10.90;99.90;;;;;;4933206;29;20048;-69
2022/10/21 02:50:28;;;;;;;182.13;68.60;;;11.10;99.90;;;;;;4933175;29;20650;-68
2022/10/21 02:52:54;;;;;;;136.95;57.85;;;11.10;99.90;;;;;;4933469;29;20054;-68
2022/10/21 02:55:19;;;;;;;123.72;56.38;;;11.30;99.90;;;;;;4934029;29;20110;-68
2022/10/21 02:57:45;;;;;;;111.25;49.25;;;11.50;99.90;;;;;;4931741;29;20047;-68
2022/10/21 03:00:12;;;;;;;131.18;56.28;;;11.60;99.90;;;;;;4933257;29;20523;-69
2022/10/21 03:02:37;;;;;;;118.32;53.38;;;11.60;99.90;;;;;;4931681;29;20102;-69
2022/10/21 03:05:03;;;;;;;141.55;58.58;;;11.80;99.90;;;;;;4933459;29;20043;-68
2022/10/21 03:07:35;;;;;;;165.85;64.55;;;11.90;99.90;;;;;;4932154;29;20055;-68
2022/10/21 03:10:00;;;;;;;144.55;56.97;;;12.00;99.90;;;;;;4932714;29;20055;-68
2022/10/21 03:12:26;;;;;;;202.55;68.13;;;12.00;99.90;;;;;;4932922;29;20058;-69
2022/10/21 03:14:52;;;;;;;159.70;66.72;;;11.90;99.90;;;;;;4930707;29;20044;-69
2022/10/21 03:17:18;;;;;;;164.95;62.45;;;11.90;99.90;;;;;;4928073;29;20044;-69
2022/10/21 03:19:44;;;;;;;153.50;61.20;;;11.80;99.90;;;;;;4915052;29;20050;-69
2022/10/21 03:22:10;;;;;;;149.30;60.72;;;11.70;99.90;;;;;;4932134;29;20047;-69
2022/10/21 03:24:35;;;;;;;155.95;58.67;;;11.70;99.90;;;;;;4932389;29;20067;-69
2022/10/21 03:27:02;;;;;;;166.23;62.67;;;11.70;99.90;;;;;;4929560;29;20098;-69
2022/10/21 03:29:27;;;;;;;144.07;60.60;;;11.70;99.90;;;;;;4929681;28;20059;-68
2022/10/21 03:31:53;;;;;;;128.63;56.33;;;11.70;99.90;;;;;;4923628;29;20059;-68
2022/10/21 03:34:18;;;;;;;145.32;61.25;;;11.70;99.90;;;;;;4931948;29;20044;-68
2022/10/21 03:36:44;;;;;;;150.77;57.17;;;11.70;99.90;;;;;;4932307;29;20075;-68
2022/10/21 03:39:10;;;;;;;158.95;60.83;;;11.70;99.90;;;;;;4932527;29;20079;-68
2022/10/21 03:41:36;;;;;;;161.20;58.75;;;11.70;99.90;;;;;;4931690;29;20032;-68
2022/10/21 03:44:02;;;;;;;170.38;62.28;;;11.70;99.90;;;;;;4932348;28;20055;-68
2022/10/21 03:46:27;;;;;;;134.07;58.95;;;11.70;99.90;;;;;;4929705;29;20930;-68
2022/10/21 03:48:53;;;;;;;121.45;53.22;;;11.80;99.90;;;;;;4923625;29;20047;-68
2022/10/21 03:51:20;;;;;;;142.48;56.58;;;11.70;99.90;;;;;;4929912;29;20044;-68
2022/10/21 03:53:45;;;;;;;137.20;57.03;;;11.70;99.90;;;;;;4932361;29;20043;-68
2022/10/21 03:56:12;;;;;;;113.13;53.10;;;11.70;99.90;;;;;;4932348;29;20492;-68
2022/10/21 03:58:37;;;;;;;103.60;52.47;;;11.70;99.90;;;;;;4931762;29;20556;-68
2022/10/21 04:01:03;;;;;;;123.70;55.08;;;11.70;99.90;;;;;;4931501;29;20132;-68
2022/10/21 04:03:29;;;;;;;136.45;56.50;;;11.70;99.90;;;;;;4930429;29;20063;-68
2022/10/21 04:05:54;;;;;;;112.25;54.13;;;11.70;99.90;;;;;;4931954;29;20488;-67
2022/10/21 04:08:20;;;;;;;117.07;53.30;;;11.60;99.90;;;;;;4931734;29;20115;-68
2022/10/21 04:10:46;;;;;;;107.20;52.08;;;11.60;99.90;;;;;;4931601;29;20175;-68
2022/10/21 04:13:12;;;;;;;121.45;53.42;;;11.60;99.90;;;;;;4930873;29;20478;-68
2022/10/21 04:15:38;;;;;;;96.18;49.22;;;11.60;99.90;;;;;;4931222;28;20035;-68
2022/10/21 04:18:05;;;;;;;114.07;50.78;;;11.50;99.90;;;;;;4930994;29;20491;-69
2022/10/21 04:20:30;;;;;;;104.65;48.25;;;11.50;99.90;;;;;;4931434;29;20138;-68
2022/10/21 04:22:56;;;;;;;93.80;48.15;;;11.50;99.90;;;;;;4945990;29;20128;-68
2022/10/21 04:25:22;;;;;;;115.45;50.38;;;11.50;99.90;;;;;;4930762;29;20044;-68
2022/10/21 04:27:47;;;;;;;121.03;51.25;;;11.40;99.90;;;;;;4928218;29;20066;-68
2022/10/21 04:30:13;;;;;;;142.27;54.03;;;11.40;99.90;;;;;;4931061;29;20058;-68
2022/10/21 04:32:39;;;;;;;102.63;47.90;;;11.40;99.90;;;;;;4930079;29;20044;-68
2022/10/21 04:35:05;;;;;;;101.90;48.28;;;11.30;99.90;;;;;;4931129;29;20413;-68
2022/10/21 04:37:30;;;;;;;92.75;45.00;;;11.30;99.90;;;;;;4944825;28;20052;-68
2022/10/21 04:39:56;;;;;;;238.25;60.95;;;11.20;99.90;;;;;;4931235;29;20051;-68
2022/10/21 04:42:22;;;;;;;122.13;49.92;;;11.20;99.90;;;;;;4931228;29;20481;-67
2022/10/21 04:44:48;;;;;;;77.50;42.58;;;11.10;99.90;;;;;;4930008;29;20085;-67
2022/10/21 04:47:14;;;;;;;77.15;40.50;;;11.10;99.90;;;;;;4930765;29;20044;-68
2022/10/21 04:49:39;;;;;;;92.55;45.42;;;11.00;99.90;;;;;;4930998;29;20047;-68
2022/10/21 04:52:05;;;;;;;90.07;44.80;;;11.10;99.90;;;;;;4929706;29;20155;-68
2022/10/21 04:54:31;;;;;;;88.63;44.60;;;11.20;99.90;;;;;;4928730;29;20807;-68
2022/10/21 04:56:56;;;;;;;81.63;43.80;;;11.20;99.90;;;;;;4930886;29;20050;-68
2022/10/21 04:59:22;;;;;;;80.30;41.90;;;11.00;99.90;;;;;;4930151;29;20047;-68
2022/10/21 05:01:48;;;;;;;85.45;44.55;;;11.00;99.90;;;;;;4931039;29;20241;-68
2022/10/21 05:04:13;;;;;;;84.50;44.45;;;11.00;99.90;;;;;;4945832;29;20102;-68
2022/10/21 05:06:39;;;;;;;76.43;40.63;;;11.00;99.90;;;;;;4928041;29;20421;-68
2022/10/21 05:09:05;;;;;;;97.88;44.38;;;11.00;99.90;;;;;;4929998;29;20040;-68
2022/10/21 05:11:31;;;;;;;86.47;42.38;;;10.90;99.90;;;;;;4930752;29;20051;-68
2022/10/21 05:13:56;;;;;;;82.82;41.35;;;10.90;99.90;;;;;;4928950;29;20044;-68
2022/10/21 05:16:22;;;;;;;77.38;42.17;;;10.90;99.90;;;;;;4929326;29;20127;-68
2022/10/21 05:18:48;;;;;;;83.15;43.05;;;10.80;99.90;;;;;;4929018;29;20575;-68
2022/10/21 05:21:14;;;;;;;100.00;45.55;;;10.90;99.90;;;;;;4929897;29;20032;-68
2022/10/21 05:23:41;;;;;;;73.70;42.20;;;10.80;99.90;;;;;;4930507;29;20035;-68
2022/10/21 05:26:07;;;;;;;96.55;43.38;;;10.80;99.90;;;;;;4943593;29;20114;-68
2022/10/21 05:28:32;;;;;;;67.95;39.55;;;10.80;99.90;;;;;;4926571;29;20195;-68
2022/10/21 05:30:58;;;;;;;76.57;39.30;;;10.70;99.90;;;;;;4930505;29;20059;-68
2022/10/21 05:33:23;;;;;;;65.35;36.63;;;10.70;99.90;;;;;;4930188;29;20168;-68
2022/10/21 05:36:03;;;;;;;73.70;38.42;;;10.60;99.90;;;;;;4930769;29;20027;-68
2022/10/21 05:38:32;;;;;;;76.22;42.03;;;10.70;99.90;;;;;;4930298;29;20048;-68
2022/10/21 05:40:58;;;;;;;75.75;40.53;;;10.40;99.90;;;;;;4930399;29;20063;-68
2022/10/21 05:43:26;;;;;;;119.00;49.38;;;10.70;99.90;;;;;;4930830;29;20036;-68
2022/10/21 05:45:52;;;;;;;81.25;42.33;;;10.70;99.90;;;;;;4928820;29;20064;-68
2022/10/21 05:48:18;;;;;;;87.88;47.33;;;10.70;99.90;;;;;;4930035;29;20056;-68
2022/10/21 05:50:45;;;;;;;113.88;50.25;;;10.70;99.90;;;;;;4928926;29;20515;-68
2022/10/21 05:53:11;;;;;;;104.15;47.35;;;10.80;99.90;;;;;;4929716;29;20040;-67
2022/10/21 05:55:37;;;;;;;98.00;47.28;;;10.90;99.90;;;;;;4928363;29;20496;-67
2022/10/21 05:58:03;;;;;;;90.88;45.97;;;10.80;99.90;;;;;;4944834;29;20094;-67
2022/10/21 06:00:28;;;;;;;98.85;47.63;;;10.80;99.90;;;;;;4930714;29;20044;-68
2022/10/21 06:02:54;;;;;;;84.25;45.75;;;10.80;99.90;;;;;;4929786;29;20855;-69
2022/10/21 06:05:20;;;;;;;87.18;43.08;;;10.80;99.90;;;;;;4928657;29;20044;-69
2022/10/21 06:07:46;;;;;;;86.78;43.67;;;10.90;99.90;;;;;;4928927;29;20130;-68
2022/10/21 06:10:12;;;;;;;86.63;45.80;;;10.90;99.90;;;;;;4931202;29;20062;-67
2022/10/21 06:12:37;;;;;;;89.25;45.90;;;10.80;99.90;;;;;;4929457;29;20044;-67
2022/10/21 06:15:04;;;;;;;103.47;48.80;;;10.90;99.90;;;;;;4931662;29;20043;-67
2022/10/21 06:17:29;;;;;;;83.18;44.30;;;10.80;99.90;;;;;;4931594;29;20123;-68
2022/10/21 06:19:55;;;;;;;100.30;47.15;;;10.70;99.90;;;;;;4933503;29;20143;-67
2022/10/21 06:22:21;;;;;;;84.25;43.72;;;10.90;99.90;;;;;;4934116;29;20135;-67
2022/10/21 06:24:46;;;;;;;88.82;42.45;;;10.70;99.90;;;;;;4933007;29;20052;-67
2022/10/21 06:27:12;;;;;;;74.95;41.75;;;10.70;99.90;;;;;;4932914;29;20082;-67
2022/10/21 06:29:38;;;;;;;74.75;41.25;;;10.70;99.90;;;;;;4931564;29;20576;-68
2022/10/21 06:32:04;;;;;;;92.50;45.60;;;10.60;99.90;;;;;;4934681;29;20131;-68
2022/10/21 06:34:30;;;;;;;83.00;42.42;;;10.70;99.90;;;;;;4931721;29;20040;-68
2022/10/21 06:36:55;;;;;;;72.43;40.72;;;10.60;99.90;;;;;;4943544;29;20501;-68
2022/10/21 06:39:21;;;;;;;59.92;37.22;;;10.60;99.90;;;;;;4933078;29;20095;-69
2022/10/21 06:41:47;;;;;;;82.45;39.92;;;10.50;99.90;;;;;;4932582;29;20048;-68
2022/10/21 06:44:12;;;;;;;118.43;47.78;;;10.50;99.90;;;;;;4933675;29;20758;-68
2022/10/21 06:46:38;;;;;;;64.22;38.95;;;10.60;99.90;;;;;;4933323;29;20538;-68
2022/10/21 06:49:03;;;;;;;78.40;41.47;;;10.60;99.90;;;;;;4933137;29;20520;-67
2022/10/21 06:51:29;;;;;;;74.00;40.45;;;10.50;99.90;;;;;;4931727;29;20419;-68
2022/10/21 06:53:58;;;;;;;68.78;41.45;;;10.60;99.90;;;;;;4932008;29;20130;-68
2022/10/21 06:56:25;;;;;;;71.07;38.33;;;10.60;99.90;;;;;;4932908;29;20047;-68
2022/10/21 06:58:51;;;;;;;66.18;39.88;;;10.50;99.90;;;;;;4930635;28;20047;-68
2022/10/21 07:01:25;;;;;;;68.15;38.83;;;10.50;99.90;;;;;;4928490;29;20039;-68
2022/10/21 07:03:52;;;;;;;85.82;40.67;;;10.50;99.90;;;;;;4931176;29;20047;-68
2022/10/21 07:06:18;;;;;;;79.30;42.85;;;10.50;99.90;;;;;;4931741;29;20119;-68
2022/10/21 07:08:44;;;;;;;73.60;39.45;;;10.50;99.90;;;;;;4931100;28;20043;-68
2022/10/21 07:11:11;;;;;;;76.65;40.35;;;10.60;99.90;;;;;;4924997;29;20072;-68
2022/10/21 07:13:37;;;;;;;73.50;40.53;;;10.60;99.90;;;;;;4930378;29;20043;-68
2022/10/21 07:16:11;;;;;;;91.53;45.67;;;10.60;99.90;;;;;;4931175;29;20046;-68
2022/10/21 07:18:36;;;;;;;80.32;40.90;;;10.70;99.90;;;;;;4931827;29;20040;-68
2022/10/21 07:21:08;;;;;;;93.88;44.78;;;10.70;99.90;;;;;;4947252;28;20511;-68
2022/10/21 07:23:34;;;;;;;76.70;41.03;;;10.70;99.90;;;;;;4932859;29;20947;-67
2022/10/21 07:26:04;;;;;;;64.50;38.40;;;10.70;99.90;;;;;;4932787;29;20059;-68
2022/10/21 07:28:30;;;;;;;77.95;42.33;;;10.70;99.90;;;;;;4930058;29;20071;-68
2022/10/21 07:30:56;;;;;;;64.38;38.75;;;10.80;99.90;;;;;;4932177;29;20424;-68
2022/10/21 07:33:22;;;;;;;64.75;37.13;;;10.80;99.90;;;;;;4927422;29;20119;-68
2022/10/21 07:35:47;;;;;;;72.28;42.03;;;10.80;99.90;;;;;;4929435;29;20043;-68
2022/10/21 07:38:13;;;;;;;70.32;39.88;;;10.90;99.90;;;;;;4930818;29;20042;-68
2022/10/21 07:40:41;;;;;;;79.25;42.13;;;10.90;99.90;;;;;;4931328;29;20168;-68
2022/10/21 07:43:06;;;;;;;115.85;49.22;;;10.80;99.90;;;;;;4932395;29;20087;-68
2022/10/21 07:45:37;;;;;;;111.25;48.65;;;11.00;99.90;;;;;;4931835;29;20075;-67
2022/10/21 07:48:02;;;;;;;95.13;49.70;;;11.10;99.90;;;;;;4932333;29;20055;-68
2022/10/21 07:50:28;;;;;;;108.13;47.10;;;11.20;99.90;;;;;;4932211;29;20872;-68
2022/10/21 07:52:54;;;;;;;106.68;47.97;;;11.20;99.90;;;;;;4931554;29;20219;-68
2022/10/21 07:55:19;;;;;;;101.82;46.53;;;11.20;99.90;;;;;;4930175;28;20405;-67
2022/10/21 07:57:45;;;;;;;109.82;49.95;;;11.50;99.90;;;;;;4927228;29;20110;-68
2022/10/21 08:00:11;;;;;;;111.13;52.33;;;11.30;99.90;;;;;;4931033;29;20126;-68
2022/10/21 08:02:37;;;;;;;114.30;53.63;;;11.40;99.90;;;;;;4931538;29;20075;-68
2022/10/21 08:05:04;;;;;;;118.40;52.80;;;11.50;99.90;;;;;;4931176;29;20547;-68
2022/10/21 08:07:30;;;;;;;118.50;55.85;;;11.60;99.90;;;;;;4930971;29;20035;-68
2022/10/21 08:09:56;;;;;;;103.50;50.58;;;11.70;99.90;;;;;;4931460;29;20460;-68
2022/10/21 08:12:22;;;;;;;98.20;48.35;;;11.80;99.90;;;;;;4931948;29;20148;-68
2022/10/21 08:14:49;;;;;;;97.78;51.05;;;11.90;99.90;;;;;;4931500;29;20505;-68
2022/10/21 08:17:15;;;;;;;115.30;55.53;;;12.00;99.90;;;;;;4931593;29;20067;-68
2022/10/21 08:19:40;;;;;;;121.72;53.95;;;12.10;99.90;;;;;;4929770;29;20099;-68
2022/10/21 08:22:06;;;;;;;114.93;54.53;;;12.30;99.90;;;;;;4930731;29;20086;-68
2022/10/21 08:24:32;;;;;;;102.60;53.35;;;12.40;99.90;;;;;;4945835;29;20044;-68
2022/10/21 08:26:58;;;;;;;116.95;53.45;;;12.50;99.90;;;;;;4931158;29;20086;-68
2022/10/21 08:29:24;;;;;;;109.38;53.83;;;12.60;99.90;;;;;;4929072;29;20416;-68
2022/10/21 08:31:51;;;;;;;113.40;53.78;;;12.70;99.90;;;;;;4945511;29;20051;-68
2022/10/21 08:34:16;;;;;;;95.68;51.85;;;12.80;99.90;;;;;;4928495;29;20056;-68
2022/10/21 08:36:42;;;;;;;99.53;50.65;;;13.10;99.90;;;;;;4931558;29;20123;-68
2022/10/21 08:39:08;;;;;;;100.30;46.08;;;12.90;99.90;;;;;;4930678;29;20090;-68
2022/10/21 08:41:57;;;;;;;110.45;53.05;;;13.00;99.90;;;;;;4931161;29;20036;-67
2022/10/21 08:44:38;;;;;;;91.20;49.13;;;13.10;99.90;;;;;;4931546;29;20050;-67
2022/10/21 08:47:11;;;;;;;88.50;48.58;;;13.20;99.90;;;;;;4931075;29;20504;-67
2022/10/21 08:49:49;;;;;;;94.47;45.22;;;13.30;99.90;;;;;;4930036;29;20040;-67
2022/10/21 08:52:18;;;;;;;;;;;13.40;99.90;;;;;;4930194;29;20082;-68
2022/10/21 08:54:55;;;;;;;78.30;44.45;;;13.40;99.90;;;;;;4931341;29;19998;-68
2022/10/21 08:57:21;;;;;;;82.65;47.03;;;13.50;99.90;;;;;;4931238;29;20517;-68
2022/10/21 08:59:47;;;;;;;84.57;44.45;;;13.70;99.90;;;;;;4930395;29;20054;-68
2022/10/21 09:02:15;;;;;;;100.45;44.22;;;13.80;99.90;;;;;;4925602;29;20226;-68
2022/10/21 09:04:59;;;;;;;;;;;13.90;99.90;;;;;;4931124;29;20047;-68
2022/10/21 09:07:49;;;;;;;73.63;40.92;;;14.00;99.90;;;;;;4930888;29;19990;-68
2022/10/21 09:10:41;;;;;;;77.75;39.88;;;14.10;99.90;;;;;;4930705;29;20051;-68
2022/10/21 09:13:28;;;;;;;70.20;38.25;;;14.10;99.90;;;;;;4929631;29;20083;-68
2022/10/21 09:16:12;;;;;;;69.85;41.40;;;14.20;99.90;;;;;;4928499;28;20054;-68
2022/10/21 09:18:54;;;;;;;61.97;35.72;;;14.40;99.90;;;;;;4928940;29;20072;-68
2022/10/21 09:21:48;;;;;;;59.45;34.95;;;14.40;99.90;;;;;;4925976;29;20052;-68
2022/10/21 09:24:33;;;;;;;64.78;34.00;;;14.50;99.90;;;;;;4930326;29;20520;-68
2022/10/21 09:27:00;;;;;;;57.63;32.40;;;14.50;99.90;;;;;;4930695;29;20598;-68
2022/10/21 09:29:36;;;;;;;55.20;33.58;;;14.60;99.90;;;;;;4931661;29;20059;-68
2022/10/21 09:32:24;;;;;;;66.53;37.03;;;14.70;99.90;;;;;;4931730;29;20409;-69
2022/10/21 09:35:14;;;;;;;56.35;34.15;;;14.90;99.90;;;;;;4936445;29;20106;-68
2022/10/21 09:37:50;;;;;;;55.40;32.13;;;15.00;99.90;;;;;;4931281;29;20043;-68
2022/10/21 09:40:18;;;;;;;55.47;33.03;;;15.20;99.90;;;;;;4930168;29;20058;-68
2022/10/21 09:42:44;;;;;;;60.50;33.33;;;15.20;99.90;;;;;;4929558;29;20058;-68
2022/10/21 09:45:23;;;;;;;57.17;32.60;;;15.50;99.90;;;;;;4932910;29;20126;-68
2022/10/21 09:47:55;;;;;;;52.78;30.98;;;15.40;99.90;;;;;;4933262;29;20048;-68
2022/10/21 09:50:21;;;;;;;46.25;29.42;;;15.50;99.90;;;;;;4938255;29;20130;-67
2022/10/21 09:52:55;;;;;;;48.45;27.67;;;15.70;99.90;;;;;;4933345;29;20167;-68
2022/10/21 09:55:23;;;;;;;46.20;28.83;;;15.70;99.90;;;;;;4932591;29;20040;-68
2022/10/21 09:57:56;;;;;;;45.63;28.03;;;15.70;99.90;;;;;;4933679;29;20055;-68
2022/10/21 10:00:43;;;;;;;39.35;25.90;;;15.70;99.90;;;;;;4937222;29;20051;-68
2022/10/21 10:03:09;;;;;;;46.33;28.02;;;15.90;99.90;;;;;;4935928;29;20050;-69
2022/10/21 10:05:46;;;;;;;47.05;26.60;;;15.80;99.90;;;;;;4939081;29;20051;-68
2022/10/21 10:08:23;;;;;;;48.15;27.20;;;16.00;99.90;;;;;;4935449;29;20385;-68
2022/10/21 10:10:49;;;;;;;51.30;28.40;;;15.90;99.90;;;;;;4935467;29;20051;-68
2022/10/21 10:13:18;;;;;;;41.97;25.20;;;16.00;99.90;;;;;;4934065;29;20070;-68
2022/10/21 10:15:44;;;;;;;40.22;26.52;;;16.10;99.90;;;;;;4930937;29;20050;-68
2022/10/21 10:18:20;;;;;;;45.88;25.80;;;16.00;99.90;;;;;;4931296;29;20039;-68
2022/10/21 10:21:02;;;;;;;39.47;26.77;;;16.10;99.90;;;;;;4933972;29;20052;-68
2022/10/21 10:23:27;;;;;;;49.30;26.52;;;16.10;99.90;;;;;;4931529;29;20115;-68
2022/10/21 10:25:54;;;;;;;41.47;26.05;;;16.20;99.90;;;;;;4937705;29;20531;-68
2022/10/21 10:28:24;;;;;;;41.92;26.63;;;16.30;99.90;;;;;;4933521;29;20110;-68
2022/10/21 10:30:53;;;;;;;43.00;25.63;;;16.10;99.90;;;;;;4933236;29;20048;-68
2022/10/21 10:33:27;;;;;;;48.30;26.48;;;16.20;99.90;;;;;;4933684;29;20114;-68
2022/10/21 10:36:04;;;;;;;42.53;24.73;;;16.10;99.90;;;;;;4932282;29;20532;-68
2022/10/21 10:38:34;;;;;;;;;;;16.20;99.90;;;;;;4932774;29;20043;-68
2022/10/21 10:41:18;;;;;;;38.25;23.55;;;16.10;99.90;;;;;;4933181;29;20055;-68
2022/10/21 10:43:51;;;;;;;42.95;25.52;;;16.10;99.90;;;;;;4933313;29;20051;-67
2022/10/21 10:46:24;;;;;;;42.15;26.45;;;16.30;99.90;;;;;;4932684;29;20035;-68
2022/10/21 10:48:51;;;;;;;39.97;25.77;;;16.10;99.90;;;;;;4932992;29;20051;-67
2022/10/21 10:51:33;;;;;;;37.95;23.40;;;16.20;99.90;;;;;;4933641;29;20035;-67
2022/10/21 10:54:17;;;;;;;48.40;27.02;;;16.20;99.90;;;;;;4933000;29;20048;-67
2022/10/21 10:56:49;;;;;;;38.80;25.90;;;16.20;99.90;;;;;;4919632;29;20419;-67
2022/10/21 10:59:42;;;;;;;36.33;23.15;;;16.20;99.90;;;;;;4932754;29;20035;-67
2022/10/21 11:02:08;;;;;;;48.40;25.55;;;16.30;99.90;;;;;;4924382;29;20055;-67
2022/10/21 11:05:32;;;;;;;48.78;24.65;;;16.10;99.90;;;;;;4932624;29;20047;-67
2022/10/21 11:08:26;;;;;;;47.55;25.13;;;16.30;99.90;;;;;;4906901;29;20450;-67
2022/10/21 11:10:58;;;;;;;45.65;25.73;;;16.30;99.90;;;;;;4910557;29;20123;-67
2022/10/21 11:13:24;;;;;;;42.55;24.67;;;16.30;99.90;;;;;;4918410;29;20928;-68
2022/10/21 11:16:17;;;;;;;42.72;24.63;;;16.30;99.90;;;;;;4925217;29;20040;-67
2022/10/21 11:18:58;;;;;;;43.63;24.23;;;16.30;99.90;;;;;;4933338;29;20424;-67
2022/10/21 11:21:44;;;;;;;43.83;25.92;;;16.30;99.90;;;;;;4932846;29;20080;-67
2022/10/21 11:24:45;;;;;;;37.65;22.83;;;16.40;99.90;;;;;;4932443;29;20103;-67
2022/10/21 11:27:29;;;;;;;36.35;21.73;;;16.40;99.90;;;;;;4932977;29;20055;-67
2022/10/21 11:30:20;;;;;;;34.67;22.20;;;16.40;99.90;;;;;;4946583;28;20056;-67
2022/10/21 11:33:27;;;;;;;37.45;22.20;;;16.40;99.90;;;;;;4929548;29;20036;-67
2022/10/21 11:36:03;;;;;;;41.72;22.95;;;16.40;99.90;;;;;;4913334;29;20184;-67
2022/10/21 11:39:00;;;;;;;42.25;24.95;;;16.60;99.90;;;;;;4932246;29;20040;-67
2022/10/21 11:41:38;;;;;;;44.25;24.00;;;16.50;99.90;;;;;;4932230;29;20702;-67
2022/10/21 11:44:12;;;;;;;36.00;21.25;;;16.50;99.90;;;;;;4928450;29;20128;-67
2022/10/21 11:47:02;;;;;;;31.90;22.38;;;16.60;99.90;;;;;;4921261;29;20050;-67
2022/10/21 11:49:40;;;;;;;47.70;22.85;;;16.70;99.90;;;;;;4931832;29;20181;-67
2022/10/21 11:52:27;;;;;;;35.53;20.85;;;16.70;99.90;;;;;;4930587;29;20086;-67
2022/10/21 11:55:14;;;;;;;33.95;20.92;;;16.70;99.90;;;;;;4938446;29;20196;-67
2022/10/21 11:58:01;;;;;;;38.85;21.38;;;16.70;99.90;;;;;;4926610;29;20054;-67
2022/10/21 12:00:34;;;;;;;33.78;20.58;;;16.70;99.90;;;;;;4931095;29;20094;-67
2022/10/21 12:03:12;;;;;;;41.92;20.25;;;16.70;99.90;;;;;;4928883;29;20051;-67
2022/10/21 12:05:58;;;;;;;37.42;20.13;;;16.70;99.90;;;;;;4922146;29;20050;-67
2022/10/21 12:08:32;;;;;;;30.38;17.95;;;16.70;99.90;;;;;;4931168;29;20066;-67
2022/10/21 12:11:01;;;;;;;43.40;19.65;;;16.70;99.90;;;;;;4931935;29;20052;-67
2022/10/21 12:13:44;;;;;;;35.28;18.75;;;16.90;99.90;;;;;;4932001;29;20044;-67
2022/10/21 12:16:17;;;;;;;37.47;18.23;;;16.80;99.90;;;;;;4926767;29;20086;-67
2022/10/21 12:18:49;;;;;;;34.15;18.85;;;16.80;99.90;;;;;;4929318;29;20130;-67
2022/10/21 12:21:25;;;;;;;34.80;18.65;;;16.80;99.90;;;;;;4931321;29;20079;-67
2022/10/21 12:24:04;;;;;;;33.78;19.33;;;16.80;99.90;;;;;;4928962;29;20118;-68
2022/10/21 12:26:39;;;;;;;29.75;17.95;;;16.90;99.90;;;;;;4929174;29;20445;-68
2022/10/21 12:29:16;;;;;;;33.63;19.55;;;16.90;99.90;;;;;;4929819;29;20056;-67
2022/10/21 12:32:01;;;;;;;28.52;18.15;;;16.80;99.90;;;;;;4945602;29;20052;-67
2022/10/21 12:34:27;;;;;;;34.72;19.05;;;16.80;99.90;;;;;;4929260;29;20510;-67
2022/10/21 12:36:53;;;;;;;28.27;16.73;;;16.80;99.90;;;;;;4928694;29;20540;-66
2022/10/21 12:39:34;;;;;;;41.83;21.80;;;16.80;99.90;;;;;;4930939;29;20047;-67
2022/10/21 12:42:15;;;;;;;32.28;17.70;;;16.90;99.90;;;;;;4926254;29;20055;-67
2022/10/21 12:44:49;;;;;;;32.80;20.48;;;16.90;99.90;;;;;;4937028;29;20043;-66